createdAt,value
2022-12-25T00:01:18.846Z,8.94
2022-12-25T00:06:20.118Z,9.32
2022-12-25T00:11:21.472Z,9.34
2022-12-25T00:16:22.735Z,9.46
2022-12-25T00:21:24.116Z,8.99
2022-12-25T00:26:25.456Z,8.99
2022-12-25T00:31:26.859Z,9.31
2022-12-25T00:36:28.224Z,9.29
2022-12-25T00:41:48.260Z,9.22
2022-12-25T00:46:49.608Z,9.19
2022-12-25T00:51:50.877Z,9.25
2022-12-25T00:56:52.165Z,9.43
2022-12-25T01:01:53.535Z,9.21
2022-12-25T01:06:54.857Z,9.44
2022-12-25T01:11:56.140Z,9.44
2022-12-25T01:16:57.423Z,9.04
2022-12-25T01:21:58.747Z,9.21
2022-12-25T01:27:00.090Z,9.32
2022-12-25T01:32:01.429Z,9.27
2022-12-25T01:37:02.711Z,9.42
2022-12-25T01:42:03.965Z,9.50
2022-12-25T01:47:05.219Z,9.49
2022-12-25T01:52:06.505Z,9.55
2022-12-25T01:57:07.722Z,9.37
2022-12-25T02:02:09.173Z,8.96
2022-12-25T02:07:10.521Z,8.91
2022-12-25T02:12:11.766Z,9.07
2022-12-25T02:17:13.030Z,8.76
2022-12-25T02:22:14.434Z,9.06
2022-12-25T02:27:15.805Z,8.86
2022-12-25T02:32:17.121Z,8.82
2022-12-25T02:37:18.418Z,8.71
2022-12-25T02:42:19.630Z,8.70
2022-12-25T02:47:39.796Z,8.95
2022-12-25T02:52:59.589Z,8.77
2022-12-25T02:58:19.502Z,8.91
2022-12-25T03:03:39.488Z,8.88
2022-12-25T03:08:40.767Z,8.80
2022-12-25T03:13:41.992Z,8.70
2022-12-25T03:18:43.277Z,8.57
2022-12-25T03:24:03.250Z,8.37
2022-12-25T03:29:04.485Z,8.38
2022-12-25T03:34:24.458Z,8.14
2022-12-25T03:39:44.293Z,8.13
2022-12-25T03:45:05.937Z,7.76
2022-12-25T03:50:25.924Z,8.00
2022-12-25T03:55:45.740Z,7.88
2022-12-25T04:01:05.509Z,7.79
2022-12-25T04:06:25.463Z,7.77
2022-12-25T04:11:45.659Z,7.75
2022-12-25T04:17:05.824Z,7.59
2022-12-25T04:22:25.979Z,7.67
2022-12-25T04:27:45.791Z,7.54
2022-12-25T04:33:05.595Z,7.77
2022-12-25T04:38:07.055Z,7.80
2022-12-25T04:43:08.390Z,7.70
2022-12-25T04:48:09.695Z,7.63
2022-12-25T04:53:10.972Z,7.32
2022-12-25T04:58:12.270Z,7.43
2022-12-25T05:03:13.697Z,7.26
2022-12-25T05:08:14.971Z,7.45
2022-12-25T05:13:16.225Z,7.38
2022-12-25T05:18:17.519Z,7.24
2022-12-25T05:23:18.783Z,7.05
2022-12-25T05:28:19.986Z,6.89
2022-12-25T05:33:21.193Z,7.00
2022-12-25T05:38:22.441Z,7.06
2022-12-25T05:43:24.086Z,7.41
2022-12-25T05:48:25.411Z,7.33
2022-12-25T05:53:26.729Z,7.57
2022-12-25T05:58:28.385Z,7.21
2022-12-25T06:03:29.923Z,7.52
2022-12-25T06:08:31.321Z,7.12
2022-12-25T06:13:32.697Z,7.35
2022-12-25T06:18:33.979Z,7.44
2022-12-25T06:23:35.286Z,7.39
2022-12-25T06:28:36.641Z,7.58
2022-12-25T06:33:38.003Z,7.58
2022-12-25T06:38:39.362Z,6.84
2022-12-25T06:43:40.645Z,7.43
2022-12-25T06:48:46.896Z,7.33
2022-12-25T06:53:48.246Z,7.32
2022-12-25T06:58:49.567Z,7.58
2022-12-25T07:03:50.870Z,7.67
2022-12-25T07:08:52.140Z,7.53
2022-12-25T07:13:53.401Z,7.58
2022-12-25T07:18:54.711Z,8.01
2022-12-25T07:23:56.107Z,8.00
2022-12-25T07:28:57.386Z,8.22
2022-12-25T07:33:58.702Z,8.11
2022-12-25T07:38:59.922Z,8.32
2022-12-25T07:44:02.045Z,8.37
2022-12-25T07:49:03.271Z,8.06
2022-12-25T07:54:04.570Z,8.15
2022-12-25T07:59:05.875Z,8.34
2022-12-25T08:04:08.299Z,8.42
2022-12-25T08:09:09.757Z,8.53
2022-12-25T08:14:11.054Z,8.49
2022-12-25T08:19:12.396Z,8.64
2022-12-25T08:24:13.750Z,8.53
2022-12-25T08:29:15.122Z,8.36
2022-12-25T08:34:16.371Z,8.23
2022-12-25T08:39:17.594Z,8.15
2022-12-25T08:44:18.888Z,8.16
2022-12-25T08:49:20.164Z,8.24
2022-12-25T08:54:21.631Z,8.50
2022-12-25T08:59:22.936Z,8.74
2022-12-25T09:04:24.223Z,8.60
2022-12-25T09:09:25.561Z,8.88
2022-12-25T09:14:26.865Z,8.75
2022-12-25T09:19:28.183Z,9.21
2022-12-25T09:24:29.626Z,9.41
2022-12-25T09:29:30.950Z,9.32
2022-12-25T09:34:32.256Z,9.39
2022-12-25T09:39:33.492Z,9.26
2022-12-25T09:44:34.858Z,9.22
2022-12-25T09:49:36.326Z,9.19
2022-12-25T09:54:37.678Z,9.34
2022-12-25T09:59:39.087Z,9.21
2022-12-25T10:04:41.074Z,9.45
2022-12-25T10:09:42.749Z,9.49
2022-12-25T10:14:44.045Z,9.57
2022-12-25T10:19:45.475Z,9.66
2022-12-25T10:24:46.831Z,9.71
2022-12-25T10:29:48.115Z,9.61
2022-12-25T10:34:50.362Z,9.27
2022-12-25T10:39:51.725Z,9.26
2022-12-25T10:44:53.010Z,9.74
2022-12-25T10:49:54.246Z,10.12
2022-12-25T10:54:55.952Z,10.26
2022-12-25T10:59:57.554Z,10.12
2022-12-25T11:04:58.770Z,10.31
2022-12-25T11:10:04.750Z,10.62
2022-12-25T11:15:06.736Z,10.88
2022-12-25T11:20:08.012Z,11.11
2022-12-25T11:25:09.266Z,10.95
2022-12-25T11:30:15.854Z,10.66
2022-12-25T11:35:18.428Z,11.04
2022-12-25T11:40:19.700Z,11.27
2022-12-25T11:45:21.012Z,11.57
2022-12-25T11:50:23.465Z,11.90
2022-12-25T11:55:24.698Z,12.31
2022-12-25T12:00:25.936Z,12.21
2022-12-25T12:05:27.217Z,12.37
2022-12-25T12:10:28.531Z,12.20
2022-12-25T12:15:29.919Z,12.27
2022-12-25T12:20:31.310Z,12.37
2022-12-25T12:25:32.972Z,12.69
2022-12-25T12:30:34.803Z,12.79
2022-12-25T12:35:36.096Z,12.48
2022-12-25T12:40:37.365Z,12.52
2022-12-25T12:45:38.800Z,12.71
2022-12-25T12:50:41.575Z,12.37
2022-12-25T12:55:42.872Z,12.30
2022-12-25T13:00:44.813Z,12.10
2022-12-25T13:05:48.040Z,12.36
2022-12-25T13:10:49.423Z,12.87
2022-12-25T13:15:50.772Z,12.97
2022-12-25T13:20:55.040Z,12.98
2022-12-25T13:25:56.489Z,12.89
2022-12-25T13:30:57.771Z,12.43
2022-12-25T13:35:59.119Z,12.35
2022-12-25T13:41:19.332Z,12.38
2022-12-25T13:46:20.646Z,12.16
2022-12-25T13:51:22.023Z,11.88
2022-12-25T13:56:23.234Z,11.72
2022-12-25T14:01:24.544Z,11.48
2022-12-25T14:06:25.941Z,11.41
2022-12-25T14:11:27.174Z,11.39
2022-12-25T14:16:28.459Z,11.42
2022-12-25T14:21:29.851Z,11.57
2022-12-25T14:26:31.119Z,11.17
2022-12-25T14:31:32.383Z,11.13
2022-12-25T14:36:33.636Z,11.39
2022-12-25T14:41:36.994Z,11.45
2022-12-25T14:46:38.259Z,11.21
2022-12-25T14:51:39.549Z,11.14
2022-12-25T14:56:41.210Z,10.97
2022-12-25T15:01:42.906Z,10.88
2022-12-25T15:06:44.897Z,11.06
2022-12-25T15:11:46.243Z,11.08
2022-12-25T15:16:47.479Z,11.22
2022-12-25T15:21:48.869Z,11.30
2022-12-25T15:26:52.079Z,11.38
2022-12-25T15:31:53.346Z,11.09
2022-12-25T15:36:54.622Z,10.60
2022-12-25T15:42:11.231Z,10.68
2022-12-25T15:47:12.655Z,10.76
2022-12-25T15:52:14.061Z,10.69
2022-12-25T15:57:15.312Z,10.68
2022-12-25T16:02:16.937Z,10.56
2022-12-25T16:07:18.462Z,10.60
2022-12-25T16:12:19.842Z,10.34
2022-12-25T16:17:21.393Z,10.53
2022-12-25T16:22:23.741Z,10.30
2022-12-25T16:27:25.255Z,10.35
2022-12-25T16:32:26.499Z,10.50
2022-12-25T16:37:28.758Z,10.46
2022-12-25T16:42:29.974Z,11.06
2022-12-25T16:47:31.196Z,10.59
2022-12-25T16:52:32.780Z,10.30
2022-12-25T16:57:34.074Z,10.17
2022-12-25T17:02:35.553Z,10.03
2022-12-25T17:07:37.053Z,9.93
2022-12-25T17:12:38.464Z,10.00
2022-12-25T17:17:39.800Z,9.78
2022-12-25T17:22:41.059Z,9.89
2022-12-25T17:27:42.271Z,10.03
2022-12-25T17:32:43.563Z,9.81
2022-12-25T17:37:44.903Z,9.77
2022-12-25T17:42:46.173Z,9.87
2022-12-25T17:47:47.406Z,9.77
2022-12-25T17:52:48.670Z,9.67
2022-12-25T17:57:50.847Z,9.66
2022-12-25T18:08:39.859Z,9.88
2022-12-25T18:19:48.972Z,9.45
2022-12-25T18:24:50.308Z,9.36
2022-12-25T18:29:51.633Z,9.27
2022-12-25T18:34:52.931Z,9.38
2022-12-25T18:39:54.223Z,9.44
2022-12-25T18:44:55.534Z,9.42
2022-12-25T18:49:56.795Z,9.27
2022-12-25T18:54:58.048Z,9.14
2022-12-25T18:59:59.751Z,8.95
2022-12-25T19:05:00.987Z,8.84
2022-12-25T19:10:02.264Z,8.84
2022-12-25T19:15:03.487Z,8.67
2022-12-25T19:20:06.127Z,8.49
2022-12-25T19:25:07.501Z,8.48
2022-12-25T19:30:09.763Z,8.32
2022-12-25T19:35:11.093Z,8.24
2022-12-25T19:40:12.343Z,8.33
2022-12-25T19:45:13.557Z,7.91
2022-12-25T19:50:14.852Z,8.03
2022-12-25T19:55:16.323Z,7.67
2022-12-25T20:00:17.553Z,7.69
2022-12-25T20:05:18.860Z,7.68
2022-12-25T20:10:20.135Z,7.71
2022-12-25T20:15:21.368Z,7.70
2022-12-25T20:20:22.626Z,7.47
2022-12-25T20:25:23.956Z,7.64
2022-12-25T20:30:25.283Z,7.45
2022-12-25T20:35:26.679Z,7.37
2022-12-25T20:40:28.071Z,7.43
2022-12-25T20:45:29.459Z,7.58
2022-12-25T20:50:30.817Z,7.75
2022-12-25T20:55:32.105Z,7.96
2022-12-25T21:00:33.372Z,8.06
2022-12-25T21:05:34.695Z,7.85
2022-12-25T21:10:35.984Z,7.81
2022-12-25T21:15:37.261Z,7.83
2022-12-25T21:20:38.795Z,7.86
2022-12-25T21:25:40.043Z,7.84
2022-12-25T21:30:41.377Z,7.42
2022-12-25T21:35:42.665Z,7.41
2022-12-25T21:40:43.946Z,7.59
2022-12-25T21:45:45.963Z,7.56
2022-12-25T21:51:06.155Z,7.44
2022-12-25T21:56:07.682Z,7.46
2022-12-25T22:01:09.004Z,7.37
2022-12-25T22:06:29.232Z,7.06
2022-12-25T22:11:49.058Z,7.07
2022-12-25T22:17:09.268Z,7.17
2022-12-25T22:22:10.510Z,7.25
2022-12-25T22:27:11.812Z,7.16
2022-12-25T22:32:13.035Z,7.11
2022-12-25T22:37:14.328Z,6.79
2022-12-25T22:42:15.583Z,7.01
2022-12-25T22:47:16.820Z,7.09
2022-12-25T22:52:18.044Z,6.91
2022-12-25T22:57:19.306Z,7.08
2022-12-25T23:02:20.932Z,6.57
2022-12-25T23:07:22.538Z,6.57
2022-12-25T23:12:42.832Z,6.66
2022-12-25T23:18:02.921Z,6.66
2022-12-25T23:23:22.933Z,6.57
2022-12-25T23:28:43.165Z,6.55
2022-12-25T23:33:44.428Z,6.51
2022-12-25T23:38:45.688Z,6.54
2022-12-25T23:43:46.903Z,6.46
2022-12-25T23:48:48.152Z,6.57
2022-12-25T23:53:49.394Z,6.48
2022-12-25T23:58:51.991Z,6.39
